This is the latest recevied weather packets stored in our database for station/object KF7SOJ. If no packets are shown the sender has not sent any weather packets the latest 10 day(s).
| Time | Temp. | Humidity | Pressure | Rain* | Wind** | Luminosity | Snow |
|---|---|---|---|---|---|---|---|
| 1788288308 | 21.11° C | 40% | 930.3 hPa | 0 mm | - | 284 W/m² | - |
| 1788288004 | 21.11° C | 41% | 930.3 hPa | 0 mm | - | 312 W/m² | - |
| 1788287703 | 21.11° C | 40% | 930.3 hPa | 0 mm | - | 312 W/m² | - |
| 1788287398 | 20.56° C | 42% | 930.1 hPa | 0 mm | - | 298 W/m² | - |
| 1788287095 | 21.11° C | 41% | 930.3 hPa | 0 mm | - | 314 W/m² | - |
| 1788286795 | 21.11° C | 39% | 930.4 hPa | 0 mm | - | 349 W/m² | - |
| 1788286494 | 21.11° C | 36% | 930.4 hPa | 0 mm | - | 382 W/m² | - |
| 1788286194 | 21.11° C | 41% | 930.1 hPa | 0 mm | - | 373 W/m² | - |
| 1788285893 | 20.56° C | 38% | 930.3 hPa | 0 mm | - | 364 W/m² | - |
| 1788285604 | 21.11° C | 37% | 930.5 hPa | 0 mm | - | 397 W/m² | - |
| 1788285286 | 20.56° C | 37% | 930.6 hPa | 0 mm | - | 372 W/m² | - |
| 1788284981 | 20.56° C | 36% | 930.8 hPa | 0 mm | - | 345 W/m² | - |
| 1788284677 | 20.56° C | 36% | 930.6 hPa | 0 mm | - | 325 W/m² | - |
| 1788284373 | 20° C | 37% | 930.6 hPa | 0 mm | - | 321 W/m² | - |
| 1788284067 | 20° C | 41% | 930.5 hPa | 0 mm | - | 375 W/m² | - |
| 1788283764 | 19.44° C | 41% | 930.7 hPa | 0 mm | - | 378 W/m² | - |
| 1788283459 | 19.44° C | 43% | 930.7 hPa | 0 mm | - | 384 W/m² | - |
| 1788283157 | 19.44° C | 44% | 930.7 hPa | 0 mm | - | 480 W/m² | - |
| 1788282855 | 18.89° C | 45% | 930.9 hPa | 0 mm | - | 446 W/m² | - |
| 1788282555 | 18.89° C | 44% | 930.9 hPa | 0 mm | - | 422 W/m² | - |
| 1788282250 | 18.33° C | 44% | 930.9 hPa | 0 mm | - | 320 W/m² | - |
| 1788281950 | 18.33° C | 43% | 931 hPa | 0 mm | - | 253 W/m² | - |
| 1788281649 | 18.33° C | 44% | 930.8 hPa | 0 mm | - | 192 W/m² | - |
| 1788281346 | 17.78° C | 45% | 930.9 hPa | 0 mm | - | 205 W/m² | - |
| 1788281041 | 17.78° C | 48% | 930.9 hPa | 0 mm | - | 243 W/m² | - |
* Rain latest hour (hover to see other rain measurements)
** Current wind speed in m/s (hover to see current wind gust speed)